Time;durP1;ratioP1;P1;durP2;ratioP2;P2;SDS_P1;SDS_P2;PMS_P1;PMS_P2;Temp;Humidity;BMP_temperature;BMP_pressure;BME280_temperature;BME280_humidity;BME280_pressure;Samples;Min_cycle;Max_cycle;Signal;HPM_P1;HPM_P2
2023/10/15 00:00:03;;;;;;;;;2.00;2.00;;;;;22.38;44.46;100187.15;109971;1253;22555;-40
2023/10/15 00:02:31;;;;;;;;;2.00;2.00;;;;;22.38;44.75;100189.77;109995;1260;19213;-39
2023/10/15 00:05:01;;;;;;;;;1.00;1.00;;;;;22.37;44.65;100189.50;109969;1253;21261;-39
2023/10/15 00:07:27;;;;;;;;;2.00;2.00;;;;;22.37;44.46;100190.70;109970;1254;19817;-39
2023/10/15 00:09:53;;;;;;;;;1.00;1.00;;;;;22.37;44.66;100195.77;109934;1268;19490;-39
2023/10/15 00:12:19;;;;;;;;;1.00;1.00;;;;;22.37;44.57;100189.11;109966;1268;19083;-39
2023/10/15 00:14:45;;;;;;;;;2.00;2.00;;;;;22.36;44.69;100183.89;109936;1256;22039;-39
2023/10/15 00:17:11;;;;;;;;;2.00;2.00;;;;;22.36;44.78;100189.17;109988;1267;18180;-39
2023/10/15 00:19:37;;;;;;;;;2.00;2.00;;;;;22.36;44.81;100188.52;109977;1267;18343;-39
2023/10/15 00:22:03;;;;;;;;;1.00;1.00;;;;;22.38;44.55;100186.77;109962;1254;18203;-39
2023/10/15 00:24:29;;;;;;;;;1.00;1.00;;;;;22.38;44.80;100187.24;109685;1260;406265;-39
2023/10/15 00:26:55;;;;;;;;;2.00;2.00;;;;;22.37;44.54;100188.73;109968;1253;19620;-39
2023/10/15 00:29:24;;;;;;;;;1.50;1.50;;;;;22.38;44.90;100190.74;109983;1267;19666;-39
2023/10/15 00:31:50;;;;;;;;;3.00;2.00;;;;;22.37;44.74;100185.46;110039;1253;21984;-39
2023/10/15 00:34:17;;;;;;;;;1.00;1.00;;;;;22.36;44.85;100183.29;109981;1253;21807;-39
2023/10/15 00:36:43;;;;;;;;;2.00;2.00;;;;;22.36;44.62;100177.13;110018;1258;19643;-39
2023/10/15 00:39:19;;;;;;;;;2.00;2.00;;;;;22.35;44.95;100175.89;109974;1260;19467;-39
2023/10/15 00:41:46;;;;;;;;;2.00;2.00;;;;;22.36;44.81;100166.15;109990;1254;20250;-39
2023/10/15 00:44:12;;;;;;;;;1.00;1.00;;;;;22.36;44.80;100163.42;110045;1254;18303;-39
2023/10/15 00:46:38;;;;;;;;;1.00;1.00;;;;;22.36;44.79;100161.85;109987;1253;20160;-39
2023/10/15 00:49:09;;;;;;;;;4.00;4.00;;;;;22.36;44.86;100161.78;109979;1253;19656;-39
2023/10/15 00:51:40;;;;;;;;;1.00;1.00;;;;;22.35;44.67;100161.74;110021;1267;19659;-39
2023/10/15 00:54:10;;;;;;;;;2.00;2.00;;;;;22.35;44.84;100165.95;110021;1267;17802;-39
2023/10/15 00:56:37;;;;;;;;;1.00;1.00;;;;;22.34;44.89;100167.21;109996;1253;20168;-40
2023/10/15 00:59:16;;;;;;;;;1.00;1.00;;;;;22.34;44.65;100166.95;109980;1252;22140;-39
2023/10/15 01:01:49;;;;;;;;;3.00;2.00;;;;;22.35;44.77;100172.61;110008;1253;19408;-39
2023/10/15 01:04:15;;;;;;;;;2.00;2.00;;;;;22.35;44.94;100173.70;110006;1267;18536;-40
2023/10/15 01:06:46;;;;;;;;;1.00;1.00;;;;;22.34;44.91;100173.45;109968;1253;20669;-39
2023/10/15 01:09:18;;;;;;;;;2.00;2.00;;;;;22.36;44.70;100172.21;109979;1260;17849;-39
2023/10/15 01:11:44;;;;;;;;;2.00;2.00;;;;;22.36;44.69;100173.24;110001;1267;21502;-39
2023/10/15 01:14:10;;;;;;;;;2.00;1.00;;;;;22.35;45.02;100175.40;109956;1253;19397;-40
2023/10/15 01:16:36;;;;;;;;;1.00;1.00;;;;;22.37;44.89;100176.46;110015;1252;21314;-39
2023/10/15 01:19:15;;;;;;;;;2.00;2.00;;;;;22.38;44.85;100175.19;109984;1253;22398;-39
2023/10/15 01:21:43;;;;;;;;;1.00;1.00;;;;;22.34;44.66;100174.31;109998;1253;19667;-39
2023/10/15 01:24:09;;;;;;;;;1.00;1.00;;;;;22.34;44.73;100171.58;110020;1251;20468;-38
2023/10/15 01:26:36;;;;;;;;;2.00;1.00;;;;;22.35;45.02;100169.66;109973;1261;19701;-39
2023/10/15 01:29:05;;;;;;;;;1.00;1.00;;;;;22.35;44.95;100170.98;109990;1251;21890;-40
2023/10/15 01:31:39;;;;;;;;;1.50;1.00;;;;;22.35;44.91;100175.23;110002;1267;18041;-40
2023/10/15 01:34:09;;;;;;;;;2.00;1.00;;;;;22.35;44.87;100177.63;109984;1253;21270;-40
2023/10/15 01:36:38;;;;;;;;;;;;;;;22.34;45.07;100178.90;109878;1251;21379;-40
2023/10/15 01:39:10;;;;;;;;;1.50;1.50;;;;;22.36;44.74;100183.67;109964;1267;22016;-40
2023/10/15 01:41:39;;;;;;;;;2.00;2.00;;;;;22.36;44.84;100182.36;110023;1259;22952;-40
2023/10/15 01:44:06;;;;;;;;;4.00;2.00;;;;;22.35;44.83;100185.48;110025;1264;19749;-39
2023/10/15 01:46:44;;;;;;;;;2.00;2.00;;;;;22.35;44.91;100183.79;109997;1267;17879;-38
2023/10/15 01:49:16;;;;;;;;;2.00;2.00;;;;;22.35;44.81;100182.81;109988;1267;18837;-39
2023/10/15 01:51:44;;;;;;;;;2.00;1.50;;;;;22.34;45.04;100183.64;109991;1260;21490;-39
2023/10/15 01:54:12;;;;;;;;;2.00;2.00;;;;;22.33;44.87;100182.40;109997;1254;21903;-40
2023/10/15 01:56:38;;;;;;;;;1.00;1.00;;;;;22.35;44.82;100185.23;109974;1267;19838;-39
2023/10/15 01:59:08;;;;;;;;;2.00;1.00;;;;;22.34;45.11;100185.40;109965;1267;19257;-39
2023/10/15 02:01:37;;;;;;;;;1.00;1.00;;;;;22.33;44.91;100182.41;110014;1253;22051;-39
2023/10/15 02:04:03;;;;;;;;;1.00;1.00;;;;;22.33;45.12;100185.14;109993;1267;18588;-41
2023/10/15 02:06:35;;;;;;;;;1.00;1.00;;;;;22.32;44.80;100191.64;109976;1253;22067;-39
2023/10/15 02:09:07;;;;;;;;;1.00;1.00;;;;;22.32;44.95;100194.42;109995;1267;19741;-38
2023/10/15 02:11:36;;;;;;;;;1.00;1.00;;;;;22.32;45.15;100197.75;110010;1267;18724;-40
2023/10/15 02:14:07;;;;;;;;;2.00;2.00;;;;;22.33;45.10;100201.18;109939;1267;19358;-39
2023/10/15 02:16:37;;;;;;;;;1.00;1.00;;;;;22.32;44.80;100196.23;109887;1253;19482;-39
2023/10/15 02:19:07;;;;;;;;;1.67;1.00;;;;;22.33;44.83;100192.08;109988;1259;22673;-39
2023/10/15 02:21:34;;;;;;;;;1.00;1.00;;;;;22.32;44.97;100194.10;109991;1260;22750;-39
2023/10/15 02:24:08;;;;;;;;;1.00;1.00;;;;;22.32;45.01;100192.19;109982;1252;19324;-39
2023/10/15 02:26:35;;;;;;;;;2.00;2.00;;;;;22.32;44.86;100192.40;109953;1253;20003;-39
2023/10/15 02:29:07;;;;;;;;;2.00;2.00;;;;;22.32;45.05;100192.19;110005;1254;22035;-39
2023/10/15 02:31:41;;;;;;;;;1.00;1.00;;;;;22.33;45.01;100188.20;109987;1267;17893;-39
2023/10/15 02:34:14;;;;;;;;;4.00;2.00;;;;;22.32;44.91;100184.44;110001;1267;18585;-40
2023/10/15 02:36:40;;;;;;;;;2.00;1.00;;;;;22.31;45.05;100180.73;109986;1252;19600;-39
2023/10/15 02:39:06;;;;;;;;;2.00;2.00;;;;;22.32;44.92;100182.97;109993;1253;19110;-39
2023/10/15 02:41:39;;;;;;;;;1.00;1.00;;;;;22.33;44.88;100187.65;109944;1253;19731;-39
2023/10/15 02:44:12;;;;;;;;;1.00;1.00;;;;;22.34;45.09;100186.05;110023;1267;18170;-39
2023/10/15 02:46:39;;;;;;;;;1.00;1.00;;;;;22.35;44.92;100190.66;109992;1267;17891;-39
2023/10/15 02:49:07;;;;;;;;;2.00;2.00;;;;;22.34;44.79;100189.98;110016;1267;18754;-39
2023/10/15 02:51:35;;;;;;;;;1.00;1.00;;;;;22.35;44.99;100189.75;110009;1267;19612;-39
2023/10/15 02:54:05;;;;;;;;;1.00;1.00;;;;;22.36;44.67;100190.71;109970;1253;20456;-40
2023/10/15 02:56:31;;;;;;;;;2.00;2.00;;;;;22.35;44.79;100188.27;109995;1253;20016;-39
2023/10/15 02:58:57;;;;;;;;;1.00;1.00;;;;;22.35;45.01;100188.44;109976;1267;17989;-39
2023/10/15 03:01:24;;;;;;;;;1.00;1.00;;;;;22.34;44.77;100188.55;109957;1254;20061;-40
2023/10/15 03:03:50;;;;;;;;;2.00;2.00;;;;;22.34;44.94;100183.04;110015;1267;18685;-39
2023/10/15 03:06:24;;;;;;;;;1.00;1.00;;;;;22.33;45.01;100187.48;109972;1253;19589;-39
2023/10/15 03:08:50;;;;;;;;;1.50;1.50;;;;;22.33;44.86;100190.59;109981;1267;18322;-40
2023/10/15 03:11:19;;;;;;;;;1.00;1.00;;;;;22.32;45.07;100197.48;109985;1267;19908;-39
2023/10/15 03:13:50;;;;;;;;;1.00;1.00;;;;;22.34;45.04;100200.84;109999;1261;19454;-39
2023/10/15 03:16:16;;;;;;;;;1.00;1.00;;;;;22.34;44.75;100196.86;109967;1260;22165;-40
2023/10/15 03:18:42;;;;;;;;;1.00;1.00;;;;;22.32;45.11;100191.21;109953;1268;18351;-40
2023/10/15 03:21:14;;;;;;;;;1.00;1.00;;;;;22.34;44.96;100198.71;109961;1254;19400;-39
2023/10/15 03:23:41;;;;;;;;;2.00;1.00;;;;;22.35;44.99;100204.87;109956;1253;22019;-39
2023/10/15 03:26:08;;;;;;;;;1.00;1.00;;;;;22.34;44.94;100203.67;109942;1254;20074;-40
2023/10/15 03:28:35;;;;;;;;;2.00;2.00;;;;;22.33;44.75;100203.85;109979;1268;18255;-39
2023/10/15 03:31:01;;;;;;;;;1.00;1.00;;;;;22.33;44.90;100203.30;109928;1268;18972;-40
2023/10/15 03:33:30;;;;;;;;;1.00;1.00;;;;;22.32;45.05;100202.29;109867;1253;18338;-40
2023/10/15 03:35:56;;;;;;;;;1.00;1.00;;;;;22.32;45.14;100208.02;110033;1263;18323;-38
2023/10/15 03:38:23;;;;;;;;;1.00;1.00;;;;;22.32;44.95;100202.67;109913;1268;21583;-39
2023/10/15 03:40:50;;;;;;;;;;;;;;;22.32;44.87;100200.05;109837;1253;22287;-39
2023/10/15 03:43:20;;;;;;;;;1.00;1.00;;;;;22.32;44.92;100199.94;109906;1253;22052;-39
2023/10/15 03:45:52;;;;;;;;;1.00;1.00;;;;;22.33;45.06;100196.71;109965;1268;19241;-39
2023/10/15 03:48:21;;;;;;;;;1.00;1.00;;;;;22.30;44.85;100187.24;109889;1253;18629;-40
2023/10/15 03:50:53;;;;;;;;;1.00;1.00;;;;;22.30;45.14;100185.66;109873;1253;19663;-40
2023/10/15 03:53:20;;;;;;;;;2.00;2.00;;;;;22.30;45.16;100191.51;109876;1253;20605;-40
2023/10/15 03:55:49;;;;;;;;;2.00;2.00;;;;;22.29;44.98;100191.90;109947;1253;20029;-40
2023/10/15 03:58:15;;;;;;;;;1.00;1.00;;;;;22.29;45.04;100200.30;109982;1254;19726;-39
2023/10/15 04:00:46;;;;;;;;;1.00;1.00;;;;;22.28;45.06;100201.84;109949;1268;21827;-39
2023/10/15 04:03:18;;;;;;;;;2.00;2.00;;;;;22.29;45.09;100200.03;110013;1254;20012;-39
2023/10/15 04:05:44;;;;;;;;;2.00;1.00;;;;;22.28;45.02;100198.13;109955;1253;20248;-39
2023/10/15 04:08:18;;;;;;;;;1.50;1.00;;;;;22.29;44.86;100192.55;109940;1268;17883;-40
2023/10/15 04:10:44;;;;;;;;;2.00;2.00;;;;;22.29;45.06;100188.95;109973;1253;22346;-40
2023/10/15 04:13:10;;;;;;;;;1.00;1.00;;;;;22.30;44.97;100185.98;109922;1268;22089;-39
2023/10/15 04:15:36;;;;;;;;;2.00;2.00;;;;;22.30;45.03;100184.47;109987;1267;17976;-39
2023/10/15 04:18:02;;;;;;;;;1.00;1.00;;;;;22.29;45.00;100188.66;109993;1254;19906;-39
2023/10/15 04:20:34;;;;;;;;;;;;;;;22.30;44.67;100187.30;109968;1267;19243;-39
2023/10/15 04:23:00;;;;;;;;;4.00;4.00;;;;;22.31;45.02;100188.98;110000;1267;17463;-40
2023/10/15 04:25:27;;;;;;;;;3.00;2.00;;;;;22.29;44.80;100192.39;109968;1260;18291;-39
2023/10/15 04:27:53;;;;;;;;;2.00;1.00;;;;;22.30;45.13;100189.10;109985;1267;19613;-39
2023/10/15 04:30:19;;;;;;;;;1.00;1.00;;;;;22.31;44.84;100184.67;109955;1253;22010;-39
2023/10/15 04:32:46;;;;;;;;;1.00;1.00;;;;;22.29;45.04;100188.89;110003;1252;20437;-40
2023/10/15 04:35:17;;;;;;;;;1.50;1.50;;;;;22.29;45.07;100184.64;109976;1253;19598;-39
2023/10/15 04:37:44;;;;;;;;;2.00;2.00;;;;;22.29;45.00;100185.73;109977;1260;19082;-39
2023/10/15 04:40:12;;;;;;;;;1.00;1.00;;;;;22.28;45.15;100184.27;109981;1267;18535;-39
2023/10/15 04:42:47;;;;;;;;;1.00;1.00;;;;;22.30;45.09;100180.10;109993;1253;19653;-39
2023/10/15 04:45:21;;;;;;;;;1.00;1.00;;;;;22.31;44.91;100185.00;109990;1253;20648;-39
2023/10/15 04:47:51;;;;;;;;;2.00;2.00;;;;;22.29;45.06;100182.63;110004;1253;20035;-40
2023/10/15 04:50:17;;;;;;;;;1.00;1.00;;;;;22.28;44.96;100188.48;110002;1253;21753;-39
2023/10/15 04:52:42;;;;;;;;;2.00;1.00;;;;;22.28;44.89;100185.75;109968;1253;19060;-40
2023/10/15 04:55:10;;;;;;;;;1.00;1.00;;;;;22.28;44.82;100189.13;109990;1253;19787;-40
2023/10/15 04:57:36;;;;;;;;;1.00;1.00;;;;;22.28;45.13;100187.48;109987;1254;19720;-41
2023/10/15 05:00:06;;;;;;;;;1.00;1.00;;;;;22.28;44.98;100183.77;109972;1253;19144;-40
2023/10/15 05:02:32;;;;;;;;;1.00;1.00;;;;;22.27;44.88;100186.86;110013;1260;22402;-41
2023/10/15 05:05:00;;;;;;;;;1.00;1.00;;;;;22.27;45.10;100189.69;109956;1260;22271;-40
2023/10/15 05:07:26;;;;;;;;;2.00;2.00;;;;;22.27;44.88;100190.01;109989;1267;19345;-40
2023/10/15 05:09:52;;;;;;;;;1.00;1.00;;;;;22.27;44.81;100192.14;109964;1253;19775;-40
2023/10/15 05:12:20;;;;;;;;;1.00;1.00;;;;;22.27;44.83;100189.20;109952;1253;19410;-40
2023/10/15 05:14:49;;;;;;;;;2.00;1.00;;;;;22.25;45.07;100196.75;109942;1267;19167;-40
2023/10/15 05:17:15;;;;;;;;;1.00;1.00;;;;;22.27;44.98;100200.11;109929;1253;21856;-40
2023/10/15 05:19:42;;;;;;;;;2.00;2.00;;;;;22.26;45.15;100206.90;109937;1268;18545;-40
2023/10/15 05:22:08;;;;;;;;;2.00;2.00;;;;;22.26;45.10;100206.45;109466;1269;19204;-40
2023/10/15 05:24:34;;;;;;;;;1.00;1.00;;;;;22.26;44.88;100209.23;109967;1253;22093;-40
2023/10/15 05:27:00;;;;;;;;;1.00;1.00;;;;;22.26;44.87;100208.91;109904;1268;21988;-39
2023/10/15 05:29:26;;;;;;;;;2.50;1.50;;;;;22.25;44.90;100208.65;109863;1253;23275;-38
2023/10/15 05:31:53;;;;;;;;;4.00;4.00;;;;;22.25;45.00;100212.14;109880;1268;18573;-38
2023/10/15 05:34:19;;;;;;;;;2.00;2.00;;;;;22.25;44.79;100207.88;109959;1253;19626;-39
2023/10/15 05:36:45;;;;;;;;;2.00;2.00;;;;;22.25;45.05;100214.59;109948;1268;21393;-38
2023/10/15 05:39:15;;;;;;;;;1.00;1.00;;;;;22.27;44.95;100214.47;109942;1253;19878;-38
2023/10/15 05:41:42;;;;;;;;;1.00;1.00;;;;;22.33;44.80;100216.14;109952;1254;19823;-38
2023/10/15 05:44:08;;;;;;;;;1.00;1.00;;;;;22.29;45.03;100217.81;109951;1253;19080;-38
2023/10/15 05:46:34;;;;;;;;;2.00;1.00;;;;;22.33;45.32;100220.50;109909;1268;19221;-38
2023/10/15 05:49:00;;;;;;;;;2.00;1.00;;;;;22.31;45.48;100220.57;109902;1253;21378;-38
2023/10/15 05:51:26;;;;;;;;;2.00;2.00;;;;;22.27;45.85;100227.08;109929;1254;18999;-38
2023/10/15 05:53:51;;;;;;;;;2.00;2.00;;;;;22.27;46.13;100225.86;109941;1253;19778;-38
2023/10/15 05:56:18;;;;;;;;;2.00;2.00;;;;;22.28;46.15;100228.36;109936;1254;19381;-40
2023/10/15 05:58:44;;;;;;;;;2.00;2.00;;;;;22.31;46.20;100228.65;109958;1268;22797;-38
2023/10/15 06:01:10;;;;;;;;;1.00;1.00;;;;;22.32;46.12;100233.02;109894;1254;19764;-40
2023/10/15 06:03:37;;;;;;;;;2.00;2.00;;;;;22.33;46.30;100236.66;109897;1268;19290;-39
2023/10/15 06:06:05;;;;;;;;;2.00;2.00;;;;;22.32;46.16;100241.14;109976;1253;21895;-39
2023/10/15 06:08:31;;;;;;;;;4.00;2.00;;;;;22.34;46.24;100246.84;109973;1253;21301;-39
2023/10/15 06:10:57;;;;;;;;;1.50;1.50;;;;;22.33;46.50;100249.31;109922;1253;20652;-39
2023/10/15 06:13:23;;;;;;;;;2.00;2.00;;;;;22.29;46.89;100251.88;109867;1254;19367;-39
2023/10/15 06:15:49;;;;;;;;;2.00;1.00;;;;;22.32;46.95;100255.98;109591;1263;19478;-39
2023/10/15 06:18:15;;;;;;;;;2.00;2.00;;;;;22.34;46.81;100259.12;109967;1268;18067;-39
2023/10/15 06:20:41;;;;;;;;;2.00;2.00;;;;;22.34;46.94;100261.41;109965;1255;19015;-39
2023/10/15 06:23:08;;;;;;;;;2.00;2.00;;;;;22.34;46.58;100262.89;109912;1254;19783;-39
2023/10/15 06:25:35;;;;;;;;;1.67;1.67;;;;;22.36;46.63;100267.98;109957;1253;20998;-39
2023/10/15 06:28:01;;;;;;;;;2.00;2.00;;;;;22.39;46.57;100275.31;109986;1254;19358;-39
2023/10/15 06:30:27;;;;;;;;;1.00;1.00;;;;;22.38;46.68;100279.80;109939;1253;20047;-39
2023/10/15 06:32:53;;;;;;;;;1.00;1.00;;;;;22.41;46.97;100279.44;109948;1254;19413;-40
2023/10/15 06:35:19;;;;;;;;;1.00;1.00;;;;;22.39;46.87;100282.30;109947;1268;17622;-39
2023/10/15 06:37:45;;;;;;;;;2.00;2.00;;;;;22.34;48.34;100284.77;109943;1254;19672;-39
2023/10/15 06:40:11;;;;;;;;;2.00;2.00;;;;;22.34;49.95;100285.70;109940;1253;19342;-39
2023/10/15 06:42:37;;;;;;;;;1.00;1.00;;;;;22.36;49.61;100290.59;109956;1253;19123;-39
2023/10/15 06:45:06;;;;;;;;;1.00;1.00;;;;;22.42;49.18;100292.59;109938;1268;18712;-40
2023/10/15 06:47:32;;;;;;;;;2.00;2.00;;;;;22.43;49.67;100295.46;109922;1257;21369;-40
2023/10/15 06:49:58;;;;;;;;;2.00;2.00;;;;;22.44;49.58;100299.70;109917;1252;19921;-40
2023/10/15 06:52:24;;;;;;;;;4.00;2.00;;;;;22.41;49.83;100299.48;109394;1260;21907;-40
2023/10/15 06:54:50;;;;;;;;;2.00;2.00;;;;;22.40;50.03;100302.05;109858;1253;21548;-39
2023/10/15 06:57:16;;;;;;;;;1.00;1.00;;;;;22.42;49.90;100303.35;109906;1253;17722;-39
2023/10/15 06:59:42;;;;;;;;;2.00;2.00;;;;;22.43;49.81;100300.10;109950;1258;21499;-39
2023/10/15 07:02:08;;;;;;;;;4.00;2.00;;;;;22.44;49.53;100306.04;109912;1253;21688;-39
2023/10/15 07:04:34;;;;;;;;;2.00;2.00;;;;;22.46;48.90;100306.73;109928;1260;22808;-39
2023/10/15 07:07:00;;;;;;;;;2.00;2.00;;;;;22.46;49.51;100306.34;109906;1252;18353;-39
2023/10/15 07:09:27;;;;;;;;;1.00;1.00;;;;;22.49;49.40;100316.08;109935;1268;17995;-39
2023/10/15 07:11:53;;;;;;;;;2.00;2.00;;;;;22.49;50.04;100312.91;109943;1268;18350;-39
2023/10/15 07:14:19;;;;;;;;;2.00;2.00;;;;;22.50;50.32;100313.06;109922;1253;20212;-39
2023/10/15 07:16:45;;;;;;;;;4.00;2.00;;;;;22.52;49.73;100306.01;109388;1269;19172;-39
2023/10/15 07:19:11;;;;;;;;;2.00;2.00;;;;;22.52;49.93;100303.80;109857;1253;22074;-39
2023/10/15 07:21:37;;;;;;;;;2.00;2.00;;;;;22.50;50.46;100308.20;109875;1251;20128;-38
2023/10/15 07:24:05;;;;;;;;;4.00;2.00;;;;;22.51;50.43;100308.24;109920;1254;19595;-39
2023/10/15 07:26:31;;;;;;;;;2.00;2.00;;;;;22.53;50.44;100311.48;109888;1252;19325;-39
2023/10/15 07:28:57;;;;;;;;;4.00;2.00;;;;;22.53;50.38;100311.16;109962;1253;19678;-39
2023/10/15 07:31:24;;;;;;;;;4.00;4.00;;;;;22.53;50.47;100311.55;109962;1261;19299;-39
2023/10/15 07:33:50;;;;;;;;;2.00;2.00;;;;;22.54;50.56;100312.80;109953;1259;19409;-39
2023/10/15 07:36:16;;;;;;;;;4.00;4.00;;;;;22.58;50.56;100312.80;109941;1253;19763;-39
2023/10/15 07:38:42;;;;;;;;;2.00;2.00;;;;;22.56;50.77;100319.77;109947;1252;19451;-39
2023/10/15 07:41:09;;;;;;;;;5.00;5.00;;;;;22.52;50.92;100323.19;109952;1253;19152;-39
2023/10/15 07:43:35;;;;;;;;;5.00;2.00;;;;;22.52;50.48;100321.23;109975;1267;18533;-39
2023/10/15 07:46:01;;;;;;;;;2.00;2.00;;;;;22.51;50.50;100324.02;109964;1253;19737;-39
2023/10/15 07:48:27;;;;;;;;;2.00;2.00;;;;;22.55;50.71;100320.91;109986;1254;19673;-39
2023/10/15 07:50:54;;;;;;;;;2.00;2.00;;;;;22.54;50.55;100317.77;109918;1253;19563;-38
2023/10/15 07:53:21;;;;;;;;;2.00;2.00;;;;;22.56;50.79;100318.28;109930;1267;19665;-38
2023/10/15 07:55:49;;;;;;;;;2.00;1.67;;;;;22.61;50.45;100318.55;109958;1253;22021;-39
2023/10/15 07:58:14;;;;;;;;;1.00;1.00;;;;;22.55;50.60;100319.44;109925;1252;22027;-39
2023/10/15 08:00:41;;;;;;;;;2.00;2.00;;;;;22.60;50.76;100319.42;109698;1260;20046;-38
2023/10/15 08:03:08;;;;;;;;;102.00;72.00;;;;;22.64;50.67;100320.69;109645;1254;19754;-39
2023/10/15 08:05:34;;;;;;;;;113.00;87.50;;;;;22.59;50.39;100324.14;109606;1253;18598;-39
2023/10/15 08:08:00;;;;;;;;;4527.50;4527.50;;;;;22.57;50.44;100327.21;109647;1267;20095;-39
2023/10/15 08:10:31;;;;;;;;;483.00;337.00;;;;;22.51;49.56;100329.15;109688;1254;20236;-39
2023/10/15 08:12:58;;;;;;;;;399.50;286.00;;;;;22.47;48.85;100336.46;109641;1252;21203;-39
2023/10/15 08:15:24;;;;;;;;;379.00;271.50;;;;;22.44;47.84;100334.20;109642;1260;21848;-40
2023/10/15 08:17:50;;;;;;;;;368.00;262.00;;;;;22.43;47.93;100340.27;109641;1253;19818;-39
2023/10/15 08:20:16;;;;;;;;;284.00;215.00;;;;;22.44;46.80;100341.24;109640;1268;18312;-40
2023/10/15 08:22:44;;;;;;;;;330.00;236.00;;;;;22.44;45.85;100346.43;109652;1253;22993;-41
2023/10/15 08:25:13;;;;;;;;;213.00;155.33;;;;;22.42;45.34;100347.98;109647;1268;18623;-39
2023/10/15 08:27:39;;;;;;;;;;;;;;;22.39;44.53;100343.60;109718;1253;18814;-40
2023/10/15 08:30:05;;;;;;;;;139.33;103.33;;;;;22.37;44.12;100344.38;109762;1254;20328;-41
2023/10/15 08:32:31;;;;;;;;;125.00;96.50;;;;;22.33;43.37;100344.70;109820;1256;19759;-39
2023/10/15 08:34:57;;;;;;;;;103.00;76.00;;;;;22.30;43.14;100352.05;109903;1254;19807;-39
2023/10/15 08:37:23;;;;;;;;;102.00;72.00;;;;;22.27;42.90;100352.02;109938;1253;21642;-39
2023/10/15 08:39:49;;;;;;;;;82.00;62.00;;;;;22.25;42.58;100354.99;109924;1268;22010;-39
2023/10/15 08:42:15;;;;;;;;;71.00;49.00;;;;;22.25;41.60;100351.67;109969;1268;18819;-38
2023/10/15 08:44:41;;;;;;;;;56.00;43.00;;;;;22.21;39.07;100352.85;109904;1253;19806;-39
2023/10/15 08:47:07;;;;;;;;;39.00;30.00;;;;;21.88;37.06;100353.16;109926;1253;19378;-40
2023/10/15 08:49:34;;;;;;;;;26.00;25.00;;;;;21.67;35.90;100355.09;109896;1253;20066;-39
2023/10/15 08:52:00;;;;;;;;;22.00;18.00;;;;;21.53;35.26;100353.35;109934;1253;20035;-39
2023/10/15 08:54:26;;;;;;;;;18.00;17.00;;;;;21.35;34.90;100357.48;109937;1253;22630;-39
2023/10/15 08:56:54;;;;;;;;;19.00;14.00;;;;;21.56;35.68;100356.60;109938;1253;20063;-39
2023/10/15 08:59:20;;;;;;;;;18.00;15.00;;;;;21.78;36.33;100354.57;109918;1268;19452;-39
2023/10/15 09:01:46;;;;;;;;;20.00;15.50;;;;;21.90;36.50;100361.10;109961;1253;21866;-39
2023/10/15 09:04:12;;;;;;;;;16.00;15.50;;;;;21.98;37.36;100356.79;109944;1253;21614;-39
2023/10/15 09:06:38;;;;;;;;;19.50;17.50;;;;;22.08;37.44;100358.17;109860;1268;20994;-39
2023/10/15 09:09:04;;;;;;;;;19.00;18.00;;;;;22.10;38.05;100357.45;109781;1253;19953;-39
2023/10/15 09:11:30;;;;;;;;;21.33;13.33;;;;;22.11;38.23;100355.30;109936;1263;21905;-39
2023/10/15 09:13:58;;;;;;;;;16.00;13.50;;;;;22.18;38.57;100354.58;109879;1268;22120;-39
2023/10/15 09:16:25;;;;;;;;;22.00;15.00;;;;;22.20;39.06;100355.60;109725;1253;21858;-39
2023/10/15 09:18:52;;;;;;;;;19.50;16.00;;;;;22.22;39.08;100355.25;109962;1253;18586;-39
2023/10/15 09:21:23;;;;;;;;;16.00;13.00;;;;;22.24;39.41;100355.77;109858;1253;19808;-39
2023/10/15 09:23:49;;;;;;;;;14.50;12.50;;;;;22.26;39.87;100361.96;109921;1260;19722;-39
2023/10/15 09:26:15;;;;;;;;;18.00;12.50;;;;;22.27;40.13;100361.58;109927;1254;20076;-39
2023/10/15 09:28:41;;;;;;;;;13.00;12.00;;;;;22.24;40.22;100363.96;109921;1254;19824;-39
2023/10/15 09:31:09;;;;;;;;;16.50;15.00;;;;;22.25;40.36;100366.51;109929;1253;22268;-40
2023/10/15 09:33:35;;;;;;;;;15.00;13.00;;;;;22.28;40.63;100367.79;109921;1254;19965;-38
2023/10/15 09:36:03;;;;;;;;;12.00;11.00;;;;;22.27;41.03;100370.48;109897;1255;19768;-39
2023/10/15 09:38:31;;;;;;;;;12.00;11.00;;;;;22.29;40.86;100369.20;109978;1253;19805;-39
2023/10/15 09:40:58;;;;;;;;;11.50;11.00;;;;;22.29;40.90;100369.26;109940;1268;18582;-39
2023/10/15 09:43:25;;;;;;;;;11.33;9.00;;;;;22.29;41.37;100369.20;109898;1254;22530;-39
2023/10/15 09:45:54;;;;;;;;;15.00;13.00;;;;;22.31;41.17;100371.20;109890;1253;19657;-38
2023/10/15 09:48:20;;;;;;;;;13.00;11.00;;;;;22.33;41.30;100377.61;109926;1268;21956;-38
2023/10/15 09:50:47;;;;;;;;;17.00;15.00;;;;;22.35;41.47;100380.38;109941;1268;18517;-38
2023/10/15 09:53:16;;;;;;;;;11.00;9.00;;;;;22.37;41.62;100382.87;109954;1252;18143;-38
2023/10/15 09:55:42;;;;;;;;;11.00;8.50;;;;;22.37;41.45;100383.09;109955;1253;19948;-38
2023/10/15 09:58:09;;;;;;;;;8.00;8.00;;;;;22.36;41.74;100384.45;109975;1268;21059;-38
2023/10/15 10:00:46;;;;;;;;;11.00;8.00;;;;;22.37;41.55;100389.80;109938;1253;19231;-39
2023/10/15 10:03:12;;;;;;;;;11.50;8.00;;;;;22.36;41.79;100384.13;109912;1254;20116;-38
2023/10/15 10:05:44;;;;;;;;;8.00;8.00;;;;;22.35;41.95;100383.98;109928;1252;20074;-38
2023/10/15 10:08:10;;;;;;;;;13.00;11.00;;;;;22.36;41.78;100386.54;109818;1253;19363;-38
2023/10/15 10:10:37;;;;;;;;;7.00;7.00;;;;;22.34;41.99;100386.39;109832;1268;19575;-38
2023/10/15 10:13:03;;;;;;;;;8.00;8.00;;;;;22.32;42.13;100384.77;109832;1252;23200;-38
2023/10/15 10:15:29;;;;;;;;;;;;;;;22.31;41.82;100388.11;109910;1268;19033;-38
2023/10/15 10:17:55;;;;;;;;;9.00;8.00;;;;;22.33;42.00;100383.17;109941;1254;19572;-39
2023/10/15 10:20:21;;;;;;;;;9.00;6.00;;;;;22.36;41.97;100386.59;109932;1253;18075;-40
2023/10/15 10:22:47;;;;;;;;;8.00;5.00;;;;;22.39;41.83;100389.66;109847;1254;19381;-37
2023/10/15 10:25:13;;;;;;;;;8.00;8.00;;;;;22.36;42.23;100385.77;109951;1253;20290;-37
2023/10/15 10:27:40;;;;;;;;;5.00;5.00;;;;;22.33;42.78;100385.52;109940;1268;18483;-38
2023/10/15 10:30:06;;;;;;;;;7.00;5.67;;;;;22.30;42.75;100386.48;109934;1268;21958;-39
2023/10/15 10:32:32;;;;;;;;;5.00;5.00;;;;;22.33;42.69;100386.17;109881;1260;18528;-39
2023/10/15 10:34:58;;;;;;;;;10.00;8.50;;;;;22.33;43.01;100388.20;109913;1253;22245;-39
2023/10/15 10:37:24;;;;;;;;;188.67;171.33;;;;;22.37;42.80;100388.87;109925;1268;17828;-39
2023/10/15 10:39:50;;;;;;;;;141.67;127.33;;;;;22.40;43.37;100386.55;109911;1254;19913;-39
2023/10/15 10:42:16;;;;;;;;;212.00;183.00;;;;;22.39;43.42;100388.63;109917;1268;18869;-38
2023/10/15 10:44:42;;;;;;;;;116.00;105.00;;;;;22.30;41.70;100385.39;109959;1254;19769;-39
2023/10/15 10:47:08;;;;;;;;;95.00;75.00;;;;;22.22;39.95;100384.00;109854;1268;18307;-39
2023/10/15 10:49:34;;;;;;;;;102.50;81.00;;;;;22.17;39.41;100383.45;109925;1254;20232;-38
2023/10/15 10:52:00;;;;;;;;;99.00;80.00;;;;;22.25;39.78;100380.05;109947;1267;18506;-39
2023/10/15 10:54:26;;;;;;;;;97.67;76.00;;;;;22.32;40.26;100384.72;109937;1268;18286;-39
2023/10/15 10:56:52;;;;;;;;;85.00;66.00;;;;;22.32;40.31;100383.79;109934;1254;21410;-38
2023/10/15 10:59:19;;;;;;;;;83.00;65.00;;;;;22.35;40.72;100383.48;109918;1253;23384;-39
2023/10/15 11:01:45;;;;;;;;;;;;;;;22.34;40.79;100379.19;109945;1254;19937;-38
2023/10/15 11:04:13;;;;;;;;;59.00;49.00;;;;;22.35;41.38;100375.63;109986;1268;19246;-39
2023/10/15 11:06:42;;;;;;;;;63.50;49.00;;;;;22.37;41.79;100375.55;109963;1252;22644;-39
2023/10/15 11:09:15;;;;;;;;;48.00;43.00;;;;;22.40;42.04;100373.77;109946;1254;19968;-39
2023/10/15 11:11:41;;;;;;;;;41.00;38.00;;;;;22.42;42.07;100369.27;109934;1254;21480;-39
2023/10/15 11:14:07;;;;;;;;;38.00;35.50;;;;;22.45;42.10;100367.11;109909;1254;19444;-38